createdAt,value
2022-09-22T00:01:37.867Z,3.88
2022-09-22T00:04:23.060Z,3.80
2022-09-22T00:07:08.399Z,4.13
2022-09-22T00:09:53.717Z,3.92
2022-09-22T00:12:39.007Z,4.43
2022-09-22T00:15:24.456Z,3.92
2022-09-22T00:18:09.398Z,4.85
2022-09-22T00:20:55.048Z,4.80
2022-09-22T00:23:41.286Z,4.03
2022-09-22T00:26:26.387Z,4.28
2022-09-22T00:29:12.525Z,4.22
2022-09-22T00:31:59.575Z,3.72
2022-09-22T00:34:46.376Z,3.70
2022-09-22T00:37:31.923Z,4.13
2022-09-22T00:40:18.199Z,4.20
2022-09-22T00:43:19.101Z,3.70
2022-09-22T00:46:30.707Z,3.58
2022-09-22T00:49:15.868Z,3.90
2022-09-22T00:52:01.464Z,4.05
2022-09-22T00:54:48.470Z,4.47
2022-09-22T00:57:36.758Z,4.28
2022-09-22T01:00:22.515Z,4.15
2022-09-22T01:03:11.451Z,4.93
2022-09-22T01:06:04.941Z,4.10
2022-09-22T01:08:50.761Z,4.78
2022-09-22T01:11:38.789Z,4.10
2022-09-22T01:14:55.315Z,4.35
2022-09-22T01:18:08.503Z,4.15
2022-09-22T01:21:46.384Z,3.97
2022-09-22T01:24:40.666Z,3.80
2022-09-22T01:27:40.482Z,3.67
2022-09-22T01:30:35.556Z,3.58
2022-09-22T01:33:26.943Z,3.65
2022-09-22T01:36:11.977Z,3.72
2022-09-22T01:39:21.050Z,3.63
2022-09-22T01:42:26.869Z,3.70
2022-09-22T01:45:20.702Z,3.40
2022-09-22T01:48:13.031Z,3.13
2022-09-22T01:51:23.761Z,3.30
2022-09-22T01:54:17.442Z,3.50
2022-09-22T01:57:14.298Z,3.15
2022-09-22T02:00:04.494Z,3.85
2022-09-22T02:03:21.244Z,3.17
2022-09-22T02:06:14.220Z,3.78
2022-09-22T02:09:07.258Z,3.55
2022-09-22T02:11:52.985Z,3.65
2022-09-22T02:14:38.430Z,3.35
2022-09-22T02:17:26.453Z,3.60
2022-09-22T02:20:11.802Z,2.97
2022-09-22T02:22:57.665Z,3.78
2022-09-22T02:25:45.088Z,3.20
2022-09-22T02:28:33.234Z,3.28
2022-09-22T02:31:20.983Z,3.72
2022-09-22T02:34:06.979Z,3.72
2022-09-22T02:37:17.214Z,3.72
2022-09-22T02:40:30.471Z,3.20
2022-09-22T02:43:36.444Z,3.08
2022-09-22T02:46:32.069Z,2.80
2022-09-22T02:49:19.032Z,3.28
2022-09-22T02:52:10.532Z,3.60
2022-09-22T02:54:56.118Z,3.67
2022-09-22T02:57:41.295Z,3.70
2022-09-22T03:00:26.812Z,3.63
2022-09-22T03:03:12.567Z,3.95
2022-09-22T03:05:58.055Z,3.42
2022-09-22T03:08:43.502Z,3.00
2022-09-22T03:11:28.569Z,2.90
2022-09-22T03:14:14.112Z,3.13
2022-09-22T03:16:59.510Z,3.15
2022-09-22T03:19:44.651Z,3.50
2022-09-22T03:22:30.245Z,3.53
2022-09-22T03:25:15.435Z,2.90
2022-09-22T03:28:00.781Z,3.28
2022-09-22T03:30:45.965Z,3.20
2022-09-22T03:33:31.490Z,3.30
2022-09-22T03:36:16.659Z,3.50
2022-09-22T03:39:02.186Z,3.65
2022-09-22T03:41:47.263Z,3.25
2022-09-22T03:44:32.957Z,3.88
2022-09-22T03:47:19.245Z,2.92
2022-09-22T03:50:05.051Z,3.88
2022-09-22T03:52:49.994Z,3.53
2022-09-22T03:55:35.632Z,3.35
2022-09-22T03:58:21.596Z,3.75
2022-09-22T04:01:08.396Z,3.47
2022-09-22T04:03:53.976Z,3.28
2022-09-22T04:06:39.359Z,3.80
2022-09-22T04:09:24.551Z,3.42
2022-09-22T04:12:09.788Z,3.50
2022-09-22T04:14:54.910Z,3.65
2022-09-22T04:17:40.408Z,4.05
2022-09-22T04:20:25.995Z,3.53
2022-09-22T04:23:12.703Z,3.10
2022-09-22T04:25:57.790Z,4.00
2022-09-22T04:28:42.930Z,3.35
2022-09-22T04:31:28.474Z,3.40
2022-09-22T04:34:13.676Z,3.38
2022-09-22T04:36:59.136Z,3.88
2022-09-22T04:39:44.498Z,3.55
2022-09-22T04:42:29.842Z,3.17
2022-09-22T04:45:16.537Z,2.88
2022-09-22T04:48:02.346Z,3.42
2022-09-22T04:50:48.374Z,3.50
2022-09-22T04:53:33.914Z,3.28
2022-09-22T04:56:19.035Z,3.65
2022-09-22T04:59:04.573Z,3.05
2022-09-22T05:01:49.889Z,3.72
2022-09-22T05:04:35.720Z,3.50
2022-09-22T05:07:21.014Z,3.30
2022-09-22T05:10:06.801Z,3.35
2022-09-22T05:12:55.362Z,3.45
2022-09-22T05:15:41.610Z,4.40
2022-09-22T05:18:26.919Z,3.63
2022-09-22T05:21:13.054Z,3.47
2022-09-22T05:23:58.254Z,3.35
2022-09-22T05:26:43.675Z,3.67
2022-09-22T05:29:29.578Z,3.70
2022-09-22T05:32:15.135Z,3.80
2022-09-22T05:35:00.441Z,3.50
2022-09-22T05:37:47.447Z,3.00
2022-09-22T05:40:32.722Z,3.55
2022-09-22T05:43:18.316Z,3.33
2022-09-22T05:46:03.933Z,3.53
2022-09-22T05:48:49.375Z,3.20
2022-09-22T05:51:34.858Z,3.33
2022-09-22T05:54:23.373Z,3.60
2022-09-22T05:57:08.586Z,3.33
2022-09-22T05:59:54.800Z,4.20
2022-09-22T06:02:40.557Z,3.97
2022-09-22T06:05:26.124Z,3.78
2022-09-22T06:08:11.786Z,3.47
2022-09-22T06:10:57.163Z,3.33
2022-09-22T06:13:42.294Z,3.38
2022-09-22T06:16:27.568Z,3.30
2022-09-22T06:19:12.621Z,3.53
2022-09-22T06:21:58.083Z,2.88
2022-09-22T06:24:44.119Z,3.70
2022-09-22T06:27:29.384Z,3.75
2022-09-22T06:30:15.002Z,3.47
2022-09-22T06:33:00.261Z,3.00
2022-09-22T06:35:46.195Z,3.50
2022-09-22T06:38:31.906Z,3.67
2022-09-22T06:41:17.033Z,3.33
2022-09-22T06:44:03.088Z,3.53
2022-09-22T06:46:48.328Z,3.22
2022-09-22T06:49:33.748Z,3.38
2022-09-22T06:52:18.912Z,3.30
2022-09-22T06:55:05.304Z,3.33
2022-09-22T06:57:51.910Z,3.20
2022-09-22T07:00:37.740Z,3.17
2022-09-22T07:03:26.262Z,3.70
2022-09-22T07:06:20.168Z,3.20
2022-09-22T07:09:07.060Z,3.30
2022-09-22T07:11:52.363Z,2.80
2022-09-22T07:14:37.866Z,2.78
2022-09-22T07:17:23.702Z,2.85
2022-09-22T07:20:08.898Z,2.63
2022-09-22T07:23:00.713Z,3.22
2022-09-22T07:26:00.865Z,3.25
2022-09-22T07:28:50.281Z,3.65
2022-09-22T07:31:36.675Z,3.33
2022-09-22T07:34:22.250Z,2.45
2022-09-22T07:37:07.903Z,2.70
2022-09-22T07:39:53.240Z,2.63
2022-09-22T07:42:38.471Z,2.67
2022-09-22T07:45:24.034Z,2.60
2022-09-22T07:48:27.732Z,2.40
2022-09-22T07:51:19.765Z,2.53
2022-09-22T07:54:08.186Z,2.42
2022-09-22T07:56:56.374Z,1.85
2022-09-22T07:59:42.030Z,2.38
2022-09-22T08:02:28.682Z,2.00
2022-09-22T08:05:16.406Z,1.88
2022-09-22T08:08:02.517Z,1.95
2022-09-22T08:10:48.960Z,2.58
2022-09-22T08:13:37.351Z,2.40
2022-09-22T08:16:24.130Z,1.90
2022-09-22T08:19:12.581Z,2.00
2022-09-22T08:21:57.705Z,2.30
2022-09-22T08:24:45.561Z,1.80
2022-09-22T08:27:31.285Z,1.48
2022-09-22T08:30:21.900Z,2.00
2022-09-22T08:33:07.710Z,1.42
2022-09-22T08:35:54.931Z,2.22
2022-09-22T08:38:40.778Z,1.52
2022-09-22T08:41:31.751Z,2.38
2022-09-22T08:44:22.972Z,1.60
2022-09-22T08:47:16.705Z,1.17
2022-09-22T08:50:22.852Z,1.52
2022-09-22T08:53:14.263Z,1.60
2022-09-22T08:56:30.318Z,1.10
2022-09-22T08:59:22.835Z,1.17
2022-09-22T09:02:21.320Z,1.10
2022-09-22T09:05:43.492Z,1.10
2022-09-22T09:09:06.651Z,1.30
2022-09-22T09:12:10.830Z,1.52
2022-09-22T09:15:28.517Z,1.50
2022-09-22T09:18:19.756Z,1.77
2022-09-22T09:21:13.518Z,0.95
2022-09-22T09:27:15.462Z,1.02
2022-09-22T09:30:12.139Z,1.27
2022-09-22T09:33:01.047Z,1.25
2022-09-22T09:35:53.273Z,1.27
2022-09-22T09:38:49.030Z,0.80
2022-09-22T09:41:35.371Z,0.73
2022-09-22T09:44:32.994Z,1.30
2022-09-22T09:48:16.597Z,1.20
2022-09-22T09:51:05.504Z,1.23
2022-09-22T09:53:52.602Z,1.00
2022-09-22T09:56:57.812Z,1.10
2022-09-22T10:00:06.684Z,1.67
2022-09-22T10:03:19.625Z,1.10
2022-09-22T10:06:10.194Z,0.95
2022-09-22T10:08:55.440Z,1.15
2022-09-22T10:11:41.977Z,1.13
2022-09-22T10:14:31.221Z,0.98
2022-09-22T10:17:21.987Z,0.98
2022-09-22T10:20:20.254Z,0.82
2022-09-22T10:23:21.145Z,0.70
2022-09-22T10:26:13.779Z,0.85
2022-09-22T10:29:20.829Z,1.17
2022-09-22T10:32:12.501Z,1.08
2022-09-22T10:34:59.617Z,0.80
2022-09-22T10:37:47.585Z,0.88
2022-09-22T10:40:39.152Z,1.65
2022-09-22T10:43:27.439Z,1.30
2022-09-22T10:46:32.419Z,0.88
2022-09-22T10:49:30.875Z,0.60
2022-09-22T10:52:44.310Z,0.93
2022-09-22T10:55:34.867Z,0.80
2022-09-22T10:58:24.785Z,1.10
2022-09-22T11:01:37.573Z,0.88
2022-09-22T11:04:51.666Z,1.33
2022-09-22T11:08:14.573Z,1.55
2022-09-22T11:11:26.556Z,1.30
2022-09-22T11:14:38.366Z,1.00
2022-09-22T11:17:32.544Z,1.00
2022-09-22T11:20:42.233Z,1.17
2022-09-22T11:23:43.991Z,1.30
2022-09-22T11:26:31.983Z,1.10
2022-09-22T11:30:10.402Z,1.27
2022-09-22T11:33:36.792Z,1.05
2022-09-22T11:36:58.910Z,1.00
2022-09-22T11:39:59.935Z,0.95
2022-09-22T11:42:52.092Z,1.02
2022-09-22T11:45:48.694Z,0.90
2022-09-22T11:48:48.156Z,1.98
2022-09-22T11:52:03.834Z,1.42
2022-09-22T11:55:28.543Z,1.55
2022-09-22T11:58:21.659Z,1.45
2022-09-22T12:01:13.463Z,0.80
2022-09-22T12:04:09.318Z,1.10
2022-09-22T12:06:56.833Z,1.00
2022-09-22T12:10:05.886Z,0.65
2022-09-22T12:12:52.832Z,0.93
2022-09-22T12:15:58.594Z,0.77
2022-09-22T12:19:05.884Z,0.90
2022-09-22T12:22:07.543Z,1.27
2022-09-22T12:24:52.872Z,0.88
2022-09-22T12:27:38.318Z,0.75
2022-09-22T12:30:23.720Z,1.42
2022-09-22T12:33:15.726Z,0.65
2022-09-22T12:36:04.814Z,0.80
2022-09-22T12:38:50.762Z,0.90
2022-09-22T12:41:48.009Z,0.68
2022-09-22T12:44:37.349Z,1.00
2022-09-22T12:47:34.022Z,1.30
2022-09-22T12:50:25.212Z,0.95
2022-09-22T12:53:22.810Z,1.00
2022-09-22T12:56:44.873Z,3.03
2022-09-22T12:59:36.124Z,0.70
2022-09-22T13:02:30.912Z,1.10
2022-09-22T13:05:28.187Z,0.98
2022-09-22T13:08:18.307Z,1.35
2022-09-22T13:11:06.535Z,0.90
2022-09-22T13:13:52.539Z,1.00
2022-09-22T13:16:37.792Z,0.90
2022-09-22T13:19:23.042Z,1.27
2022-09-22T13:22:17.680Z,3.38
2022-09-22T13:25:35.545Z,1.10
2022-09-22T13:28:23.384Z,0.88
2022-09-22T13:31:17.255Z,1.50
2022-09-22T13:34:37.142Z,1.40
2022-09-22T13:37:24.582Z,1.20
2022-09-22T13:40:11.111Z,1.48
2022-09-22T13:43:01.343Z,1.10
2022-09-22T13:45:46.794Z,1.13
2022-09-22T13:48:36.813Z,0.90
2022-09-22T13:51:22.259Z,1.38
2022-09-22T13:54:09.531Z,1.00
2022-09-22T13:56:57.544Z,0.85
2022-09-22T13:59:42.984Z,0.80
2022-09-22T14:02:31.806Z,1.20
2022-09-22T14:05:27.753Z,1.00
2022-09-22T14:08:20.410Z,1.63
2022-09-22T14:11:11.977Z,0.80
2022-09-22T14:14:02.621Z,1.77
2022-09-22T14:17:03.313Z,2.20
2022-09-22T14:20:01.017Z,0.95
2022-09-22T14:22:46.387Z,1.00
2022-09-22T14:25:33.107Z,0.70
2022-09-22T14:28:23.611Z,1.58
2022-09-22T14:31:15.405Z,0.90
2022-09-22T14:34:03.005Z,0.82
2022-09-22T14:36:50.274Z,1.20
2022-09-22T14:39:39.504Z,0.88
2022-09-22T14:42:29.122Z,1.45
2022-09-22T14:45:20.831Z,1.33
2022-09-22T14:48:33.356Z,1.40
2022-09-22T14:51:24.835Z,1.08
2022-09-22T14:54:17.110Z,1.63
2022-09-22T14:57:08.045Z,1.70
2022-09-22T15:00:15.574Z,1.80
2022-09-22T15:03:06.208Z,1.60
2022-09-22T15:05:51.907Z,2.03
2022-09-22T15:08:37.303Z,1.70
2022-09-22T15:11:50.082Z,1.48
2022-09-22T15:14:41.928Z,1.33
2022-09-22T15:17:59.988Z,1.27
2022-09-22T15:20:58.853Z,2.10
2022-09-22T15:23:47.832Z,2.05
2022-09-22T15:26:33.431Z,1.88
2022-09-22T15:29:19.256Z,2.03
2022-09-22T15:32:07.209Z,1.30
2022-09-22T15:35:05.020Z,1.10
2022-09-22T15:37:50.453Z,1.20
2022-09-22T15:40:35.845Z,1.27
2022-09-22T15:43:23.378Z,1.08
2022-09-22T15:46:29.145Z,1.67
2022-09-22T15:49:18.094Z,1.40
2022-09-22T15:52:04.846Z,2.70
2022-09-22T15:54:50.217Z,1.38
2022-09-22T15:57:35.555Z,1.50
2022-09-22T16:00:27.114Z,1.20
2022-09-22T16:03:23.896Z,1.58
2022-09-22T16:06:12.836Z,1.70
2022-09-22T16:09:02.248Z,1.83
2022-09-22T16:12:03.305Z,2.20
2022-09-22T16:14:52.074Z,1.80
2022-09-22T16:17:38.360Z,1.90
2022-09-22T16:20:23.861Z,2.45
2022-09-22T16:23:09.843Z,2.10
2022-09-22T16:25:55.679Z,2.13
2022-09-22T16:28:43.758Z,1.88
2022-09-22T16:31:29.869Z,1.55
2022-09-22T16:34:15.307Z,1.17
2022-09-22T16:37:00.745Z,30.58
2022-09-22T16:39:45.853Z,8.30
2022-09-22T16:42:31.390Z,2.15
2022-09-22T16:45:16.587Z,3.05
2022-09-22T16:48:02.050Z,2.40
2022-09-22T16:50:47.150Z,2.45
2022-09-22T16:53:32.967Z,1.77
2022-09-22T16:56:26.819Z,2.15
2022-09-22T16:59:15.224Z,1.63
2022-09-22T17:02:00.864Z,1.80
2022-09-22T17:04:46.272Z,1.90
2022-09-22T17:07:31.360Z,1.95
2022-09-22T17:10:19.179Z,2.10
2022-09-22T17:13:06.010Z,2.00
2022-09-22T17:16:18.443Z,2.50
2022-09-22T17:19:07.943Z,2.45
2022-09-22T17:21:55.302Z,2.50
2022-09-22T17:24:40.710Z,2.40
2022-09-22T17:27:26.235Z,2.10
2022-09-22T17:30:11.883Z,2.20
2022-09-22T17:32:57.330Z,2.45
2022-09-22T17:35:42.674Z,2.80
2022-09-22T17:38:34.781Z,3.13
2022-09-22T17:41:23.213Z,3.17
2022-09-22T17:44:09.179Z,2.88
2022-09-22T17:47:13.315Z,3.85
2022-09-22T17:50:31.002Z,3.50
2022-09-22T17:53:34.792Z,3.30
2022-09-22T17:56:20.450Z,3.55
2022-09-22T17:59:05.769Z,5.53
2022-09-22T18:01:53.675Z,9.48
2022-09-22T18:04:39.363Z,7.68
2022-09-22T18:07:26.521Z,9.95
2022-09-22T18:10:16.093Z,6.68
2022-09-22T18:15:47.563Z,4.97
2022-09-22T18:18:33.147Z,4.78
2022-09-22T18:21:18.308Z,4.10
2022-09-22T18:24:03.608Z,3.58
2022-09-22T18:26:53.063Z,4.20
2022-09-22T18:29:38.324Z,5.80
2022-09-22T18:32:27.755Z,5.15
2022-09-22T18:35:13.130Z,4.97
2022-09-22T18:37:58.552Z,4.93
2022-09-22T18:40:44.201Z,4.22
2022-09-22T18:43:30.286Z,4.68
2022-09-22T18:46:22.277Z,4.25
2022-09-22T18:49:09.287Z,4.70
2022-09-22T18:51:54.509Z,4.05
2022-09-22T18:54:43.829Z,4.55
2022-09-22T18:57:29.081Z,5.35
2022-09-22T19:00:15.448Z,5.93
2022-09-22T19:03:00.735Z,6.15
2022-09-22T19:05:45.954Z,6.05
2022-09-22T19:08:31.354Z,6.35
2022-09-22T19:11:17.207Z,7.05
2022-09-22T19:14:02.296Z,7.00
2022-09-22T19:16:48.792Z,5.55
2022-09-22T19:19:36.908Z,5.80
2022-09-22T19:22:23.227Z,5.72
2022-09-22T19:25:09.486Z,4.90
2022-09-22T19:27:55.139Z,5.22
2022-09-22T19:30:40.394Z,5.95
2022-09-22T19:33:25.583Z,6.10
2022-09-22T19:36:11.216Z,5.93
2022-09-22T19:38:56.869Z,7.85
2022-09-22T19:41:47.906Z,7.80
2022-09-22T19:44:33.457Z,10.05
2022-09-22T19:47:19.934Z,10.05
2022-09-22T19:50:07.986Z,11.10
2022-09-22T19:52:53.609Z,11.20
2022-09-22T19:55:39.729Z,10.10
2022-09-22T19:58:25.414Z,10.15
2022-09-22T20:01:23.399Z,14.55
2022-09-22T20:04:19.816Z,18.73
2022-09-22T20:07:07.268Z,10.75
2022-09-22T20:09:52.562Z,9.80
2022-09-22T20:12:38.221Z,11.30
2022-09-22T20:15:24.054Z,9.48
2022-09-22T20:18:09.923Z,9.73
2022-09-22T20:20:56.887Z,8.77
2022-09-22T20:23:42.769Z,10.77
2022-09-22T20:26:28.052Z,9.77
2022-09-22T20:29:15.556Z,10.40
2022-09-22T20:32:01.151Z,9.27
2022-09-22T20:34:47.081Z,9.23
2022-09-22T20:37:32.980Z,10.93
2022-09-22T20:40:22.932Z,10.93
2022-09-22T20:43:11.877Z,10.27
2022-09-22T20:46:03.902Z,10.30
2022-09-22T20:48:49.457Z,8.88
2022-09-22T20:51:35.074Z,10.35
2022-09-22T20:54:20.562Z,10.23
2022-09-22T20:57:05.783Z,9.50
2022-09-22T20:59:51.159Z,11.82
2022-09-22T21:02:37.308Z,10.88
2022-09-22T21:05:22.499Z,11.20
2022-09-22T21:08:26.388Z,11.90
2022-09-22T21:11:13.483Z,10.90
2022-09-22T21:14:03.038Z,10.63
2022-09-22T21:16:49.519Z,10.93
2022-09-22T21:19:36.383Z,11.43
2022-09-22T21:22:21.803Z,11.55
2022-09-22T21:25:07.117Z,11.45
2022-09-22T21:27:52.398Z,11.07
2022-09-22T21:30:37.821Z,11.32
2022-09-22T21:33:23.875Z,12.48
2022-09-22T21:36:16.066Z,11.75
2022-09-22T21:39:01.563Z,12.00
2022-09-22T21:41:46.824Z,11.77
2022-09-22T21:44:32.071Z,12.07
2022-09-22T21:47:17.215Z,11.85
2022-09-22T21:50:03.053Z,10.80
2022-09-22T21:52:48.711Z,10.98
2022-09-22T21:55:33.853Z,11.82
2022-09-22T21:58:20.140Z,11.07
2022-09-22T22:01:11.091Z,10.73
2022-09-22T22:03:57.776Z,11.35
2022-09-22T22:06:45.560Z,10.65
2022-09-22T22:09:30.770Z,9.98
2022-09-22T22:12:16.528Z,10.02
2022-09-22T22:15:02.006Z,10.50
2022-09-22T22:17:48.036Z,10.10
2022-09-22T22:20:33.418Z,10.60
2022-09-22T22:23:18.678Z,10.93
2022-09-22T22:26:08.781Z,10.65
2022-09-22T22:31:39.514Z,11.18
2022-09-22T22:34:27.607Z,11.18
2022-09-22T22:37:12.941Z,10.23
2022-09-22T22:39:58.388Z,10.95
2022-09-22T22:42:43.743Z,11.23
2022-09-22T22:45:29.312Z,10.30
2022-09-22T22:48:15.523Z,11.00
2022-09-22T22:51:08.404Z,10.15
2022-09-22T22:53:57.006Z,11.05
2022-09-22T22:56:44.312Z,10.70
2022-09-22T22:59:31.889Z,11.25
2022-09-22T23:02:17.331Z,10.60
2022-09-22T23:05:03.102Z,11.05
2022-09-22T23:07:48.348Z,10.65
2022-09-22T23:10:34.214Z,11.27
2022-09-22T23:13:19.685Z,11.45
2022-09-22T23:16:08.620Z,12.45
2022-09-22T23:18:57.458Z,11.35
2022-09-22T23:21:43.269Z,11.82
2022-09-22T23:24:28.902Z,10.50
2022-09-22T23:27:14.340Z,12.02
2022-09-22T23:29:59.817Z,10.80
2022-09-22T23:32:45.143Z,10.77
2022-09-22T23:35:30.681Z,11.35
2022-09-22T23:38:17.525Z,10.48
2022-09-22T23:41:04.065Z,11.00
2022-09-22T23:43:49.735Z,10.77
2022-09-22T23:46:35.211Z,10.15
2022-09-22T23:49:20.329Z,10.38
2022-09-22T23:52:05.802Z,9.32
2022-09-22T23:54:51.035Z,8.65
2022-09-22T23:57:36.965Z,9.52
